Time;durP1;ratioP1;P1;durP2;ratioP2;P2;SDS_P1;SDS_P2;PMS_P1;PMS_P2;Temp;Humidity;BMP_temperature;BMP_pressure;BME280_temperature;BME280_humidity;BME280_pressure;Samples;Min_cycle;Max_cycle;Signal;HPM_P1;HPM_P2
2023/04/11 00:01:31;;;;;;;33.90;21.02;;;14.50;58.80;;;;;;5069591;28;20117;-75
2023/04/11 00:03:57;;;;;;;30.65;21.85;;;14.50;58.90;;;;;;5065321;28;20446;-75
2023/04/11 00:06:25;;;;;;;29.08;19.92;;;14.50;58.90;;;;;;5069621;28;20033;-76
2023/04/11 00:08:51;;;;;;;31.00;20.52;;;14.50;59.20;;;;;;5067828;28;20515;-75
2023/04/11 00:11:17;;;;;;;28.27;19.63;;;14.50;59.20;;;;;;5050052;28;20368;-75
2023/04/11 00:13:44;;;;;;;28.05;19.52;;;14.50;59.30;;;;;;5069252;28;20033;-75
2023/04/11 00:16:10;;;;;;;37.20;20.02;;;14.50;59.50;;;;;;5049018;28;20466;-76
2023/04/11 00:18:38;;;;;;;32.00;19.13;;;14.50;59.50;;;;;;5008228;28;20024;-75
2023/04/11 00:21:05;;;;;;;28.95;19.92;;;14.50;59.40;;;;;;5048239;28;20036;-75
2023/04/11 00:23:31;;;;;;;29.83;19.42;;;14.40;59.20;;;;;;5052810;28;20057;-75
2023/04/11 00:25:57;;;;;;;26.67;20.70;;;14.40;59.10;;;;;;5054172;28;20137;-75
2023/04/11 00:28:23;;;;;;;29.00;20.92;;;14.40;59.10;;;;;;5054275;28;20029;-76
2023/04/11 00:30:49;;;;;;;32.80;20.65;;;14.40;59.00;;;;;;5072753;28;20512;-76
2023/04/11 00:33:15;;;;;;;31.25;20.50;;;14.40;58.70;;;;;;5038863;28;20077;-75
2023/04/11 00:35:41;;;;;;;27.30;20.83;;;14.40;58.60;;;;;;5053720;28;20032;-76
2023/04/11 00:38:07;;;;;;;36.22;20.67;;;14.40;58.50;;;;;;5038356;28;20036;-76
2023/04/11 00:40:33;;;;;;;29.98;20.45;;;14.40;58.80;;;;;;5037733;28;20563;-75
2023/04/11 00:42:59;;;;;;;30.23;20.60;;;14.40;59.20;;;;;;5071901;28;20379;-75
2023/04/11 00:45:26;;;;;;;35.55;21.52;;;14.40;59.30;;;;;;5054349;28;20077;-75
2023/04/11 00:47:52;;;;;;;39.17;22.67;;;14.40;59.30;;;;;;5054087;28;20505;-76
2023/04/11 00:50:21;;;;;;;36.00;24.05;;;14.40;59.40;;;;;;5054084;28;20044;-75
2023/04/11 00:52:49;;;;;;;31.08;23.50;;;14.40;59.30;;;;;;5037511;28;20144;-76
2023/04/11 00:55:16;;;;;;;34.53;23.25;;;14.40;59.40;;;;;;5042501;28;20032;-76
2023/04/11 00:57:43;;;;;;;33.47;23.55;;;14.40;59.50;;;;;;5044768;28;20501;-77
2023/04/11 01:00:10;;;;;;;36.83;24.38;;;14.40;59.60;;;;;;5037788;28;20044;-77
2023/04/11 01:02:37;;;;;;;33.97;24.27;;;14.30;59.40;;;;;;5071882;28;20123;-76
2023/04/11 01:05:04;;;;;;;35.85;26.13;;;14.30;59.40;;;;;;5071219;28;20574;-78
2023/04/11 01:07:31;;;;;;;33.35;24.83;;;14.30;59.30;;;;;;5036829;28;20039;-77
2023/04/11 01:10:00;;;;;;;40.15;25.38;;;14.30;59.20;;;;;;5071321;28;20036;-77
2023/04/11 01:12:26;;;;;;;35.80;25.42;;;14.30;59.20;;;;;;5071446;28;20036;-77
2023/04/11 01:14:52;;;;;;;30.90;23.70;;;14.30;59.20;;;;;;5036554;28;20039;-77
2023/04/11 01:17:20;;;;;;;39.50;24.65;;;14.30;59.30;;;;;;5054248;28;20092;-78
2023/04/11 01:19:47;;;;;;;35.15;24.83;;;14.30;59.40;;;;;;5055800;28;20515;-76
2023/04/11 01:22:16;;;;;;;34.53;23.17;;;14.30;59.50;;;;;;5053137;28;20399;-77
2023/04/11 01:24:43;;;;;;;31.77;23.27;;;14.30;59.60;;;;;;5053442;28;20387;-77
2023/04/11 01:27:09;;;;;;;36.20;24.05;;;14.30;59.70;;;;;;5053885;28;20036;-77
2023/04/11 01:29:35;;;;;;;40.53;24.05;;;14.20;59.60;;;;;;5070589;28;20028;-77
2023/04/11 01:32:01;;;;;;;38.97;25.67;;;14.20;59.40;;;;;;5053266;28;20037;-77
2023/04/11 01:34:30;;;;;;;34.55;23.45;;;14.20;59.40;;;;;;5053396;28;20029;-77
2023/04/11 01:36:56;;;;;;;37.60;24.00;;;14.20;59.40;;;;;;5052976;28;20071;-76
2023/04/11 01:39:22;;;;;;;34.60;23.77;;;14.20;59.60;;;;;;5042263;28;20546;-77
2023/04/11 01:41:50;;;;;;;33.45;22.98;;;14.20;59.60;;;;;;5072268;28;20155;-76
2023/04/11 01:44:19;;;;;;;32.13;21.73;;;14.20;59.90;;;;;;5032395;28;20079;-77
2023/04/11 01:46:45;;;;;;;29.55;22.13;;;14.20;59.90;;;;;;5054946;28;20738;-77
2023/04/11 01:49:17;;;;;;;33.67;23.02;;;14.20;60.00;;;;;;5032239;28;20063;-77
2023/04/11 01:51:44;;;;;;;35.75;23.77;;;14.20;60.00;;;;;;5059895;28;20025;-77
2023/04/11 01:54:10;;;;;;;32.85;21.38;;;14.20;59.90;;;;;;5052609;28;20469;-77
2023/04/11 01:56:37;;;;;;;31.73;22.77;;;14.20;60.10;;;;;;5036407;28;20061;-77
2023/04/11 01:59:03;;;;;;;33.90;23.05;;;14.20;60.20;;;;;;5054140;28;20535;-77
2023/04/11 02:01:29;;;;;;;34.80;23.77;;;14.20;60.20;;;;;;5030025;28;20439;-78
2023/04/11 02:03:56;;;;;;;34.15;24.17;;;14.20;60.10;;;;;;5034065;28;20086;-77
2023/04/11 02:06:22;;;;;;;35.72;23.80;;;14.20;59.90;;;;;;5033464;28;20028;-78
2023/04/11 02:08:49;;;;;;;37.20;25.35;;;14.20;59.80;;;;;;5054202;28;20095;-78
2023/04/11 02:11:15;;;;;;;36.63;24.08;;;14.20;59.90;;;;;;5055478;28;20037;-77
2023/04/11 02:13:41;;;;;;;33.45;23.83;;;14.20;59.90;;;;;;5054559;28;20056;-77
2023/04/11 02:16:13;;;;;;;31.83;22.95;;;14.10;60.00;;;;;;5054750;28;20128;-77
2023/04/11 02:18:41;;;;;;;34.05;23.63;;;14.10;60.10;;;;;;5051657;28;20086;-77
2023/04/11 02:21:07;;;;;;;32.15;23.85;;;14.10;60.10;;;;;;5035484;28;20032;-77
2023/04/11 02:23:33;;;;;;;34.38;22.95;;;14.10;60.20;;;;;;5054192;28;20036;-77
2023/04/11 02:26:00;;;;;;;33.20;22.38;;;14.10;60.30;;;;;;5055547;28;20198;-77
2023/04/11 02:28:27;;;;;;;30.80;21.10;;;14.10;60.40;;;;;;5054388;28;20040;-76
2023/04/11 02:30:54;;;;;;;33.42;21.80;;;14.10;60.60;;;;;;5054942;28;20418;-78
2023/04/11 02:33:21;;;;;;;38.38;22.60;;;14.10;60.40;;;;;;5033107;28;20127;-79
2023/04/11 02:35:47;;;;;;;36.45;23.23;;;14.10;60.40;;;;;;5035701;28;20090;-80
2023/04/11 02:38:13;;;;;;;35.22;23.50;;;14.10;60.30;;;;;;5030257;28;20112;-79
2023/04/11 02:40:39;;;;;;;36.97;23.17;;;14.00;60.20;;;;;;5051809;28;20633;-78
2023/04/11 02:43:06;;;;;;;31.25;24.23;;;14.10;60.30;;;;;;5030496;28;20446;-79
2023/04/11 02:45:32;;;;;;;31.75;23.70;;;14.10;60.10;;;;;;5033803;28;20689;-79
2023/04/11 02:48:00;;;;;;;33.95;24.75;;;14.10;60.00;;;;;;5041429;28;20032;-79
2023/04/11 02:50:26;;;;;;;51.25;35.40;;;14.10;60.20;;;;;;5052186;28;20082;-79
2023/04/11 02:52:53;;;;;;;69.15;46.72;;;14.10;60.40;;;;;;5043859;28;20119;-80
2023/04/11 02:55:23;;;;;;;65.93;42.60;;;14.10;60.40;;;;;;5052503;28;20040;-80
2023/04/11 02:57:50;;;;;;;51.28;34.45;;;14.10;60.30;;;;;;5052866;28;20424;-79
2023/04/11 03:00:19;;;;;;;44.50;29.85;;;14.10;60.30;;;;;;5057696;28;20040;-80
2023/04/11 03:02:55;;;;;;;36.72;27.75;;;14.10;60.20;;;;;;5041308;28;20041;-79
2023/04/11 03:05:23;;;;;;;43.03;26.90;;;14.10;60.30;;;;;;5050749;28;20040;-80
2023/04/11 03:07:52;;;;;;;36.67;25.90;;;14.10;60.30;;;;;;5034979;28;20037;-80
2023/04/11 03:10:18;;;;;;;39.28;25.02;;;14.10;60.40;;;;;;5018631;28;20143;-79
2023/04/11 03:12:44;;;;;;;38.15;25.48;;;14.10;60.40;;;;;;5031311;28;20095;-80
2023/04/11 03:15:14;;;;;;;35.35;23.02;;;14.10;60.50;;;;;;5036242;28;20107;-77
2023/04/11 03:17:40;;;;;;;37.15;24.80;;;14.10;60.40;;;;;;5044778;28;20123;-79
2023/04/11 03:20:12;;;;;;;32.58;24.70;;;14.10;60.50;;;;;;5052940;28;20047;-79
2023/04/11 03:22:41;;;;;;;33.58;23.33;;;14.10;60.60;;;;;;5050854;28;20404;-79
2023/04/11 03:25:08;;;;;;;37.83;24.48;;;14.10;60.70;;;;;;5052777;28;20040;-79
2023/04/11 03:27:34;;;;;;;40.42;24.73;;;14.10;60.80;;;;;;5031725;28;20029;-80
2023/04/11 03:30:03;;;;;;;35.00;24.63;;;14.10;60.80;;;;;;5049441;28;20053;-80
2023/04/11 03:32:40;;;;;;;34.63;23.73;;;14.10;60.90;;;;;;5049838;28;20033;-80
2023/04/11 03:35:06;;;;;;;32.67;23.85;;;14.10;61.00;;;;;;5031365;28;20037;-80
2023/04/11 03:37:33;;;;;;;35.28;23.50;;;14.10;61.00;;;;;;5014476;28;20037;-80
2023/04/11 03:39:59;;;;;;;37.80;23.63;;;14.10;60.90;;;;;;5033413;28;20036;-81
2023/04/11 03:42:25;;;;;;;35.72;24.40;;;14.10;61.20;;;;;;5033841;28;20028;-75
2023/04/11 03:44:56;;;;;;;34.20;23.33;;;14.10;61.40;;;;;;5051652;28;20031;-76
2023/04/11 03:47:24;;;;;;;32.75;23.00;;;14.10;61.60;;;;;;5050139;28;20044;-78
2023/04/11 03:49:50;;;;;;;33.85;23.27;;;14.10;61.50;;;;;;5031969;28;20055;-77
2023/04/11 03:52:17;;;;;;;35.50;23.00;;;14.10;61.60;;;;;;5031468;28;20037;-81
2023/04/11 03:54:45;;;;;;;37.78;24.00;;;14.10;61.60;;;;;;5009459;28;20152;-79
2023/04/11 03:57:12;;;;;;;31.63;22.75;;;14.10;61.70;;;;;;5034984;28;20041;-79
2023/04/11 03:59:38;;;;;;;32.78;21.70;;;14.10;61.60;;;;;;5036934;28;20396;-78
2023/04/11 04:02:08;;;;;;;30.33;21.23;;;14.10;61.60;;;;;;5054522;28;20094;-79
2023/04/11 04:04:39;;;;;;;29.33;19.80;;;14.10;61.80;;;;;;5031321;28;20483;-79
2023/04/11 04:07:25;;;;;;;29.70;19.38;;;14.10;61.90;;;;;;5055450;28;20040;-80
2023/04/11 04:09:56;;;;;;;26.58;19.92;;;14.10;61.90;;;;;;5052096;28;20049;-79
2023/04/11 04:12:22;;;;;;;28.02;20.02;;;14.10;62.30;;;;;;5051589;28;20079;-75
2023/04/11 04:15:13;;;;;;;27.38;20.40;;;14.10;62.50;;;;;;5046820;28;20053;-75
2023/04/11 04:17:41;;;;;;;28.67;19.40;;;14.10;62.70;;;;;;5043755;28;20033;-75
2023/04/11 04:20:12;;;;;;;25.77;19.52;;;14.10;63.40;;;;;;5049662;28;20025;-75
2023/04/11 04:22:39;;;;;;;27.85;20.42;;;14.10;62.70;;;;;;5034893;28;20043;-78
2023/04/11 04:25:08;;;;;;;28.80;19.30;;;14.10;62.90;;;;;;5056217;28;20384;-76
2023/04/11 04:27:34;;;;;;;27.85;19.17;;;14.10;63.00;;;;;;5055004;28;20060;-75
2023/04/11 04:30:00;;;;;;;23.55;17.67;;;14.10;62.90;;;;;;5055759;28;20036;-74
2023/04/11 04:32:33;;;;;;;25.30;18.80;;;14.20;63.00;;;;;;5054899;28;20033;-75
2023/04/11 04:35:07;;;;;;;27.33;19.77;;;14.10;63.00;;;;;;5071740;28;20033;-75
2023/04/11 04:37:38;;;;;;;28.92;19.48;;;14.10;63.20;;;;;;5053686;28;20590;-75
2023/04/11 04:40:19;;;;;;;28.70;20.42;;;14.20;63.30;;;;;;5052408;28;20028;-76
2023/04/11 04:43:07;;;;;;;31.30;21.10;;;14.20;63.20;;;;;;5052701;28;20060;-81
2023/04/11 04:45:44;;;;;;;30.27;20.83;;;14.20;63.10;;;;;;5059052;28;20036;-78
2023/04/11 04:48:13;;;;;;;32.22;21.55;;;14.20;63.30;;;;;;5037189;28;20107;-78
2023/04/11 04:50:39;;;;;;;26.38;20.63;;;14.20;63.20;;;;;;5052323;28;20131;-79
2023/04/11 04:53:06;;;;;;;28.45;19.73;;;14.20;63.20;;;;;;5036348;28;20028;-79
2023/04/11 04:55:33;;;;;;;32.55;22.60;;;14.20;63.00;;;;;;5037103;28;20040;-79
2023/04/11 04:57:59;;;;;;;31.27;21.30;;;14.20;62.90;;;;;;5036959;28;20508;-74
2023/04/11 05:00:25;;;;;;;31.25;21.15;;;14.20;62.80;;;;;;5054446;28;20037;-75
2023/04/11 05:02:56;;;;;;;31.70;22.33;;;14.30;62.70;;;;;;5035714;28;20431;-75
2023/04/11 05:05:28;;;;;;;32.13;22.20;;;14.30;62.60;;;;;;5038484;28;20044;-75
2023/04/11 05:07:54;;;;;;;33.08;23.67;;;14.30;62.60;;;;;;5037472;28;20110;-75
2023/04/11 05:10:20;;;;;;;31.45;23.33;;;14.30;62.50;;;;;;5052597;28;20048;-76
2023/04/11 05:12:47;;;;;;;34.45;23.73;;;14.30;62.40;;;;;;5034882;28;20534;-75
2023/04/11 05:15:14;;;;;;;36.22;23.25;;;14.30;62.40;;;;;;5038271;28;20036;-75
2023/04/11 05:17:41;;;;;;;32.58;23.95;;;14.30;62.40;;;;;;5059900;28;20033;-76
2023/04/11 05:20:09;;;;;;;31.80;23.67;;;14.40;62.60;;;;;;5054205;28;20060;-73
2023/04/11 05:22:36;;;;;;;36.00;24.67;;;14.40;62.60;;;;;;5053226;28;20063;-76
2023/04/11 05:25:04;;;;;;;30.98;23.75;;;14.40;62.60;;;;;;5053778;28;20508;-81
2023/04/11 05:27:31;;;;;;;31.40;24.10;;;14.40;62.90;;;;;;5056279;28;20037;-83
2023/04/11 05:29:58;;;;;;;35.17;24.48;;;14.50;62.90;;;;;;5014395;28;20503;-83
2023/04/11 05:32:24;;;;;;;37.58;25.05;;;14.50;63.20;;;;;;5057221;28;20480;-84
2023/04/11 05:34:52;;;;;;;36.35;24.73;;;14.50;63.30;;;;;;5064312;28;20057;-83
2023/04/11 05:37:23;;;;;;;36.38;25.00;;;14.60;63.50;;;;;;5054593;28;20036;-77
2023/04/11 05:39:51;;;;;;;32.28;23.73;;;14.70;63.60;;;;;;5069304;28;20522;-81
2023/04/11 05:42:17;;;;;;;32.78;23.88;;;14.80;63.20;;;;;;5070675;28;20036;-79
2023/04/11 05:44:43;;;;;;;31.23;24.27;;;14.90;63.10;;;;;;5053919;28;20089;-78
2023/04/11 05:47:10;;;;;;;33.65;23.75;;;15.00;63.00;;;;;;5062811;28;20036;-77
2023/04/11 05:49:37;;;;;;;30.13;23.65;;;15.10;63.00;;;;;;5066121;28;20045;-78
2023/04/11 05:52:03;;;;;;;32.10;23.85;;;15.10;63.10;;;;;;5050085;28;20179;-77
2023/04/11 05:54:34;;;;;;;33.35;24.50;;;15.20;63.00;;;;;;5049459;28;20056;-78
2023/04/11 05:57:01;;;;;;;32.67;23.60;;;15.20;62.70;;;;;;5050779;28;20041;-79
2023/04/11 05:59:31;;;;;;;34.72;24.77;;;15.20;62.80;;;;;;5052869;28;20044;-77
2023/04/11 06:01:58;;;;;;;37.00;25.55;;;15.20;62.50;;;;;;5014529;28;20041;-79
2023/04/11 06:04:24;;;;;;;33.28;24.33;;;15.20;62.30;;;;;;5053254;28;20067;-79
2023/04/11 06:06:51;;;;;;;34.17;24.48;;;15.30;62.20;;;;;;5045398;28;20029;-78
2023/04/11 06:09:17;;;;;;;33.03;24.38;;;15.30;62.30;;;;;;5054537;28;20066;-79
2023/04/11 06:11:43;;;;;;;37.47;25.27;;;15.30;62.20;;;;;;5053464;28;20036;-78
2023/04/11 06:14:09;;;;;;;31.23;24.52;;;15.40;61.70;;;;;;5052752;28;20422;-79
2023/04/11 06:16:37;;;;;;;34.85;24.38;;;15.50;61.50;;;;;;5034691;28;20033;-78
2023/04/11 06:19:04;;;;;;;35.45;23.95;;;15.50;60.90;;;;;;5051933;28;20045;-78
2023/04/11 06:21:33;;;;;;;29.70;23.27;;;15.70;60.70;;;;;;5054151;28;20060;-78
2023/04/11 06:24:08;;;;;;;36.35;24.10;;;15.80;60.60;;;;;;5052504;28;20190;-79
2023/04/11 06:26:34;;;;;;;29.85;22.02;;;15.90;60.70;;;;;;5052641;28;20514;-78
2023/04/11 06:29:03;;;;;;;25.83;20.30;;;16.10;60.10;;;;;;5053845;28;20067;-80
2023/04/11 06:31:29;;;;;;;27.35;19.67;;;16.20;59.70;;;;;;5054576;28;20491;-80
2023/04/11 06:33:55;;;;;;;26.45;19.30;;;16.40;59.10;;;;;;5055674;28;20122;-79
2023/04/11 06:36:21;;;;;;;24.92;19.23;;;16.60;58.60;;;;;;5054919;28;20039;-80
2023/04/11 06:38:48;;;;;;;25.55;18.00;;;16.80;58.10;;;;;;5055938;28;20036;-79
2023/04/11 06:41:14;;;;;;;26.67;19.33;;;16.90;57.70;;;;;;5050457;28;20548;-82
2023/04/11 06:43:40;;;;;;;21.45;17.08;;;17.00;57.30;;;;;;5020356;28;20064;-85
2023/04/11 06:46:07;;;;;;;19.75;16.25;;;17.10;56.70;;;;;;5055205;28;20065;-85
2023/04/11 06:48:33;;;;;;;20.40;16.25;;;17.10;56.40;;;;;;5036661;28;20060;-82
2023/04/11 06:50:59;;;;;;;19.40;15.65;;;17.30;56.30;;;;;;5053705;28;20093;-78
2023/04/11 06:53:25;;;;;;;20.00;15.35;;;17.40;56.20;;;;;;5037697;28;20511;-79
2023/04/11 06:55:51;;;;;;;20.67;15.27;;;17.50;55.80;;;;;;5076620;28;20074;-79
2023/04/11 06:58:17;;;;;;;20.15;15.52;;;17.50;55.30;;;;;;5079372;28;20040;-78
2023/04/11 07:00:43;;;;;;;17.98;15.32;;;17.60;55.30;;;;;;5070729;28;20047;-78
2023/04/11 07:03:10;;;;;;;24.20;14.77;;;17.70;55.20;;;;;;5050500;28;20087;-80
2023/04/11 07:05:36;;;;;;;17.08;13.88;;;17.80;55.10;;;;;;5069831;28;20045;-79
2023/04/11 07:08:02;;;;;;;21.02;12.98;;;18.00;54.80;;;;;;5077423;28;20053;-80
2023/04/11 07:10:28;;;;;;;16.13;13.32;;;18.10;54.10;;;;;;5088783;28;20097;-81
2023/04/11 07:12:54;;;;;;;16.05;12.35;;;18.20;54.30;;;;;;5076062;28;20491;-82
2023/04/11 07:15:22;;;;;;;16.23;13.38;;;18.30;53.50;;;;;;5035637;28;20036;-82
2023/04/11 07:17:48;;;;;;;14.48;12.45;;;18.40;53.40;;;;;;5040601;28;20425;-82
2023/04/11 07:20:15;;;;;;;16.10;13.50;;;18.50;53.30;;;;;;5070764;28;20537;-80
2023/04/11 07:22:42;;;;;;;16.67;13.00;;;18.70;53.30;;;;;;5069586;28;20127;-76
2023/04/11 07:25:09;;;;;;;21.50;14.75;;;18.80;53.60;;;;;;5072350;28;20033;-75
2023/04/11 07:27:35;;;;;;;19.27;14.15;;;18.90;54.80;;;;;;5066317;28;20029;-75
2023/04/11 07:30:04;;;;;;;18.13;14.00;;;19.10;54.70;;;;;;5088453;28;20527;-75
2023/04/11 07:32:30;;;;;;;21.52;13.93;;;19.20;54.60;;;;;;5089299;28;20036;-76
2023/04/11 07:34:56;;;;;;;17.98;12.98;;;19.30;54.30;;;;;;5080349;28;20101;-73
2023/04/11 07:37:22;;;;;;;15.40;12.82;;;19.40;54.00;;;;;;5076539;28;20093;-76
2023/04/11 07:39:48;;;;;;;13.98;12.10;;;19.60;54.00;;;;;;5077330;28;20530;-74
2023/04/11 07:42:14;;;;;;;14.52;11.73;;;19.60;53.40;;;;;;5059469;28;20071;-74
2023/04/11 07:44:40;;;;;;;19.60;12.82;;;19.70;53.00;;;;;;5076211;28;20077;-75
2023/04/11 07:47:06;;;;;;;15.02;12.43;;;19.70;51.90;;;;;;5058332;28;20045;-75
2023/04/11 07:49:32;;;;;;;16.73;12.85;;;19.70;52.10;;;;;;5077380;28;20075;-76
2023/04/11 07:51:57;;;;;;;22.63;13.55;;;19.80;52.20;;;;;;5040261;28;20101;-74
2023/04/11 07:54:27;;;;;;;25.88;14.25;;;19.80;52.00;;;;;;5077620;28;20119;-74
2023/04/11 07:56:53;;;;;;;16.45;12.45;;;19.90;52.30;;;;;;5077392;28;20031;-73
2023/04/11 07:59:19;;;;;;;15.77;12.02;;;20.00;52.90;;;;;;5076699;28;20036;-73
2023/04/11 08:01:45;;;;;;;17.70;13.18;;;20.10;51.90;;;;;;5058451;28;20032;-73
2023/04/11 08:04:11;;;;;;;19.90;13.23;;;20.10;52.30;;;;;;5077371;28;20502;-73
2023/04/11 08:06:37;;;;;;;17.27;13.13;;;20.20;51.90;;;;;;5076649;28;20032;-73
2023/04/11 08:09:04;;;;;;;17.10;12.63;;;20.30;51.30;;;;;;5076573;28;20162;-73
2023/04/11 08:11:30;;;;;;;15.73;11.85;;;20.30;51.00;;;;;;5077107;28;20119;-74
2023/04/11 08:13:56;;;;;;;20.40;12.32;;;20.40;51.00;;;;;;5076875;28;20048;-74
2023/04/11 08:16:22;;;;;;;13.55;11.10;;;20.40;51.00;;;;;;5058050;28;20059;-73
2023/04/11 08:18:48;;;;;;;15.20;10.98;;;20.50;51.00;;;;;;5076043;28;20024;-72
2023/04/11 08:21:14;;;;;;;19.25;11.75;;;20.50;51.30;;;;;;5077148;28;20033;-73
2023/04/11 08:23:40;;;;;;;15.68;11.63;;;20.60;50.20;;;;;;5075671;28;20445;-73
2023/04/11 08:26:08;;;;;;;14.75;10.60;;;20.60;50.40;;;;;;5076497;28;20890;-73
2023/04/11 08:28:34;;;;;;;13.32;10.75;;;20.70;51.50;;;;;;5058101;28;20036;-72
2023/04/11 08:31:01;;;;;;;14.73;9.82;;;20.70;50.40;;;;;;5061772;28;20400;-73
2023/04/11 08:33:27;;;;;;;15.02;8.85;;;20.70;49.60;;;;;;5076787;28;20570;-73
2023/04/11 08:35:53;;;;;;;10.07;8.38;;;20.70;50.90;;;;;;5076577;28;20130;-73
2023/04/11 08:38:19;;;;;;;11.20;8.88;;;20.70;50.60;;;;;;5072159;28;20233;-72
2023/04/11 08:40:45;;;;;;;11.68;8.55;;;20.70;50.50;;;;;;5076161;28;20036;-73
2023/04/11 08:43:11;;;;;;;11.77;8.30;;;20.70;49.50;;;;;;5075192;28;20109;-74
2023/04/11 08:45:41;;;;;;;10.07;8.55;;;20.60;50.40;;;;;;5075490;28;20024;-77
2023/04/11 08:48:11;;;;;;;13.55;9.13;;;20.60;50.00;;;;;;5076247;28;20046;-78
2023/04/11 08:50:40;;;;;;;12.90;9.40;;;20.60;50.20;;;;;;5021532;28;20519;-74
2023/04/11 08:53:07;;;;;;;13.93;10.05;;;20.60;50.20;;;;;;5075728;28;20451;-76
2023/04/11 08:55:33;;;;;;;11.85;9.73;;;20.60;49.70;;;;;;5076263;28;20031;-73
2023/04/11 08:58:01;;;;;;;13.18;9.18;;;20.50;49.80;;;;;;5074579;28;20036;-72
2023/04/11 09:00:31;;;;;;;14.00;10.27;;;20.50;49.80;;;;;;5074477;28;20532;-72
2023/04/11 09:02:57;;;;;;;12.95;9.90;;;20.50;49.60;;;;;;5058483;28;20033;-72
2023/04/11 09:05:28;;;;;;;12.68;9.77;;;20.50;49.80;;;;;;5075349;28;20047;-72
2023/04/11 09:07:56;;;;;;;11.55;9.25;;;20.40;49.50;;;;;;5061581;28;20140;-72
2023/04/11 09:10:22;;;;;;;14.38;10.43;;;20.40;49.80;;;;;;5074907;28;20045;-72
2023/04/11 09:12:48;;;;;;;11.02;8.95;;;20.40;49.50;;;;;;5073501;28;20028;-72
2023/04/11 09:15:19;;;;;;;11.38;8.77;;;20.40;50.30;;;;;;5076214;28;20058;-72
2023/04/11 09:17:45;;;;;;;10.32;9.13;;;20.40;49.90;;;;;;5050094;28;20041;-73
2023/04/11 09:20:19;;;;;;;10.50;9.18;;;20.50;49.70;;;;;;5074509;28;20046;-72
2023/04/11 09:22:48;;;;;;;11.20;8.93;;;20.50;50.20;;;;;;5076524;28;20064;-73
2023/04/11 09:25:14;;;;;;;11.75;8.98;;;20.50;50.10;;;;;;5075658;28;20040;-73
2023/04/11 09:27:40;;;;;;;12.35;9.30;;;20.50;50.30;;;;;;5073475;28;20032;-73
2023/04/11 09:30:27;;;;;;;11.90;9.20;;;20.50;50.30;;;;;;5073482;28;20079;-75
2023/04/11 09:32:53;;;;;;;11.73;8.63;;;20.50;50.50;;;;;;5075089;28;20028;-74
2023/04/11 09:35:24;;;;;;;10.65;9.55;;;20.50;50.70;;;;;;5056637;28;20037;-71
2023/04/11 09:37:54;;;;;;;10.88;8.60;;;20.50;50.60;;;;;;5074231;28;20044;-72
2023/04/11 09:40:24;;;;;;;12.73;8.90;;;20.50;51.20;;;;;;5055927;28;20059;-71
2023/04/11 09:43:02;;;;;;;14.30;9.88;;;20.50;51.00;;;;;;5074130;28;20495;-71
2023/04/11 09:45:29;;;;;;;12.93;9.00;;;20.50;51.00;;;;;;5075377;28;20553;-73
2023/04/11 09:47:57;;;;;;;10.02;8.57;;;20.60;51.00;;;;;;5064685;28;20089;-74
2023/04/11 09:50:25;;;;;;;11.38;8.55;;;20.50;50.30;;;;;;5074447;28;20132;-74
2023/04/11 09:52:52;;;;;;;13.27;9.43;;;20.60;50.90;;;;;;5057527;28;20412;-73
2023/04/11 09:55:23;;;;;;;12.05;9.50;;;20.50;50.30;;;;;;5075273;28;20028;-73
2023/04/11 09:57:51;;;;;;;14.00;9.48;;;20.60;50.20;;;;;;5053180;28;20024;-73
2023/04/11 10:00:28;;;;;;;12.20;9.50;;;20.60;50.00;;;;;;5054799;28;20032;-73
2023/04/11 10:02:54;;;;;;;12.90;9.57;;;20.60;50.40;;;;;;5073304;28;20387;-73
2023/04/11 10:05:25;;;;;;;13.00;9.98;;;20.60;49.50;;;;;;5072062;28;20048;-72
2023/04/11 10:08:00;;;;;;;13.93;9.60;;;20.60;50.00;;;;;;5072856;28;20131;-72
2023/04/11 10:10:26;;;;;;;10.25;9.15;;;20.60;49.80;;;;;;5073931;28;20130;-73
2023/04/11 10:12:52;;;;;;;11.25;8.73;;;20.60;49.90;;;;;;5073071;28;20036;-73
2023/04/11 10:15:18;;;;;;;10.00;8.73;;;20.60;50.00;;;;;;5074861;28;20024;-73
2023/04/11 10:18:11;;;;;;;10.40;8.73;;;20.70;49.60;;;;;;5074300;28;20039;-73
2023/04/11 10:20:45;;;;;;;10.27;8.35;;;20.70;49.20;;;;;;5054882;28;20419;-72
2023/04/11 10:23:12;;;;;;;10.35;8.85;;;20.60;48.70;;;;;;5072015;28;20039;-72
2023/04/11 10:25:54;;;;;;;13.40;9.27;;;20.70;49.30;;;;;;5074303;28;20035;-73
2023/04/11 10:28:37;;;;;;;9.82;8.32;;;20.70;49.00;;;;;;5073213;28;20045;-73
2023/04/11 10:31:08;;;;;;;12.25;8.75;;;20.70;49.30;;;;;;5055459;28;20424;-73
2023/04/11 10:33:36;;;;;;;11.57;9.45;;;20.70;48.70;;;;;;5074071;28;20414;-73
2023/04/11 10:36:09;;;;;;;12.45;9.13;;;20.70;48.40;;;;;;5072983;28;20051;-73
2023/04/11 10:38:47;;;;;;;9.85;8.65;;;20.70;48.70;;;;;;5056611;28;20036;-73
2023/04/11 10:41:16;;;;;;;9.88;8.27;;;20.70;48.80;;;;;;5056307;28;20078;-73
2023/04/11 10:43:43;;;;;;;9.38;8.35;;;20.70;48.40;;;;;;5054893;28;20043;-73
2023/04/11 10:46:27;;;;;;;10.75;8.27;;;20.60;48.50;;;;;;5054829;28;20044;-73
2023/04/11 10:49:00;;;;;;;11.13;8.05;;;20.60;48.80;;;;;;5055158;28;20417;-73
2023/04/11 10:51:28;;;;;;;12.90;8.95;;;20.70;48.70;;;;;;5074061;28;20028;-73
2023/04/11 10:53:57;;;;;;;9.85;8.70;;;20.70;48.00;;;;;;5073369;28;20081;-73
2023/04/11 10:56:42;;;;;;;9.23;7.75;;;20.70;47.90;;;;;;5053891;28;20050;-72
2023/04/11 10:59:30;;;;;;;9.60;8.13;;;20.70;48.30;;;;;;5072805;28;20028;-73
2023/04/11 11:01:57;;;;;;;10.63;8.43;;;20.70;48.40;;;;;;5073703;28;20036;-73
2023/04/11 11:04:34;;;;;;;9.82;8.35;;;20.70;48.40;;;;;;5055237;28;20032;-73
2023/04/11 11:07:03;;;;;;;13.63;8.40;;;20.70;47.30;;;;;;5071504;28;20036;-73
2023/04/11 11:09:29;;;;;;;9.63;7.88;;;20.70;47.30;;;;;;5072023;28;20521;-75
2023/04/11 11:12:08;;;;;;;9.32;8.30;;;20.70;47.80;;;;;;5044727;28;20028;-72
2023/04/11 11:14:35;;;;;;;10.75;8.60;;;20.60;47.30;;;;;;5058350;28;20085;-75
2023/04/11 11:17:04;;;;;;;10.52;8.40;;;20.60;47.80;;;;;;5087297;28;20037;-75
2023/04/11 11:19:30;;;;;;;9.68;8.65;;;20.70;47.60;;;;;;5064590;28;20040;-75
2023/04/11 11:22:02;;;;;;;10.48;8.40;;;20.70;47.70;;;;;;5085768;28;20047;-74
2023/04/11 11:24:29;;;;;;;9.55;8.00;;;20.70;48.50;;;;;;5052660;28;20028;-74
2023/04/11 11:26:56;;;;;;;10.98;8.07;;;20.70;48.30;;;;;;5087431;28;20461;-75
2023/04/11 11:29:37;;;;;;;9.27;8.18;;;20.70;48.20;;;;;;5077470;28;20044;-76
2023/04/11 11:32:03;;;;;;;9.90;7.88;;;20.70;48.50;;;;;;5085722;28;20090;-75
2023/04/11 11:34:31;;;;;;;9.70;8.38;;;20.70;48.80;;;;;;5089500;28;20089;-72
2023/04/11 11:37:00;;;;;;;10.52;7.63;;;20.70;48.40;;;;;;5076351;28;20499;-74
2023/04/11 11:39:29;;;;;;;8.85;7.75;;;20.70;48.70;;;;;;5047716;28;20358;-76
2023/04/11 11:41:55;;;;;;;9.35;7.85;;;20.60;48.70;;;;;;5051429;28;20041;-72
2023/04/11 11:44:28;;;;;;;8.65;7.35;;;20.70;48.20;;;;;;5077974;28;20085;-73
2023/04/11 11:47:08;;;;;;;10.77;7.20;;;20.60;48.80;;;;;;5087551;28;20404;-73
2023/04/11 11:49:54;;;;;;;9.88;7.65;;;20.70;49.10;;;;;;5080404;28;20433;-72
2023/04/11 11:52:38;;;;;;;9.90;7.68;;;20.70;48.90;;;;;;5070941;28;20197;-74
2023/04/11 11:55:08;;;;;;;10.23;7.47;;;20.70;48.30;;;;;;5076048;28;20427;-73
2023/04/11 11:57:46;;;;;;;9.30;8.10;;;20.70;48.30;;;;;;5077840;28;20111;-73
2023/04/11 12:00:13;;;;;;;8.63;7.47;;;20.70;48.60;;;;;;5005919;28;20534;-76
2023/04/11 12:02:42;;;;;;;8.68;7.72;;;20.70;48.20;;;;;;5083626;28;20043;-76
2023/04/11 12:05:10;;;;;;;8.23;7.43;;;20.70;48.40;;;;;;5052761;28;20044;-76
2023/04/11 12:07:37;;;;;;;8.02;7.22;;;20.70;48.20;;;;;;5072307;28;20036;-81
2023/04/11 12:10:07;;;;;;;9.30;7.68;;;20.70;48.50;;;;;;5070270;28;20063;-73
2023/04/11 12:12:41;;;;;;;9.93;7.78;;;20.70;48.10;;;;;;5088738;28;20032;-74
2023/04/11 12:15:21;;;;;;;9.75;8.00;;;20.70;47.80;;;;;;5080808;28;20629;-74
2023/04/11 12:17:51;;;;;;;8.57;7.68;;;20.70;47.80;;;;;;5047536;28;20577;-76
2023/04/11 12:20:26;;;;;;;10.60;8.13;;;20.70;48.00;;;;;;5082866;28;20036;-74
2023/04/11 12:22:53;;;;;;;9.18;8.27;;;20.70;48.30;;;;;;5040038;28;20561;-73
2023/04/11 12:25:19;;;;;;;10.50;9.38;;;20.70;47.50;;;;;;5092536;28;20036;-74
2023/04/11 12:27:45;;;;;;;8.77;7.88;;;20.70;47.80;;;;;;5078800;28;20060;-81
2023/04/11 12:30:15;;;;;;;10.05;8.48;;;20.70;48.10;;;;;;5092276;28;20032;-76
2023/04/11 12:32:41;;;;;;;10.23;8.32;;;20.70;47.00;;;;;;5070751;28;20071;-75
2023/04/11 12:35:07;;;;;;;12.10;8.30;;;20.70;47.10;;;;;;5078536;28;20396;-76
2023/04/11 12:37:34;;;;;;;8.80;7.82;;;20.70;47.40;;;;;;5044327;28;20119;-76